Grobbendonk, Belgium
Current Conditions -  °F | °C
As of 3:20 PM on Sunday 21 Dec 2014 (Local Time) from EBAW Reporting Station
Broken Clouds Broken Clouds  
Wind Chill: 41°   Ceiling: 1100
Heat Index: 46°   Visibility: 6mi
Dew Point: 45°   Wind: 12mph
Humidity: 93%   Direction: 230°SW
Pressure: 30.3"   Gusts: NA
Location:  51.19°N, 4.74°E
Report Text: EBAW 211420Z 23010KT 9999 SCT006 BKN011 08/07 Q1026 TEMPO 23015G25KT 4000 -RADZ BKN008
Loading
Personal Weather Stations






























Interactive Weather Map New forecast layout! Learn more

10-Day Weather Forecast

Advertisements
Track Severe Weather on mobile